Terminal Aerodrome Forecast
Issued by NWS

Home | Current Version | Previous Version | Text Only | Print | Product List | Glossary Off
Versions: 1 2 3 4 5 6 7 8 9 10 11 12 13 14 15 16 17 18

000
FTUS43 KABR 021100
TAFMBG
TAF
KMBG 021125Z 0212/0312 14010KT P6SM SKC
     FM021700 18013G21KT P6SM SKC
     FM030000 09006KT P6SM SCT080
      TEMPO 0300/0303 -SHRA SCT050 BKN070
     FM030800 36005KT P6SM SCT090=

USA.gov is the U.S. government's official web portal to all federal, state and local government web resources and services.